Time,TemperatureF,DewpointF,PressureIn,WindDirection,WindDirectionDegrees,WindSpeedMPH,WindSpeedGustMPH,Humidity,HourlyPrecipIn,Conditions,Clouds,dailyrainin,SoftwareType,DateUTC
2013-04-28 00:02:00,55.6,50.8,29.89,SE,126,0.0,0.0,84,0.02,,RA,0.00,VWS V14.01,2013-04-28 05:02:00,
2013-04-28 00:07:00,55.7,51.0,29.89,SE,126,0.0,0.0,84,0.02,,RA,0.00,VWS V14.01,2013-04-28 05:07:00,
2013-04-28 00:12:00,55.7,51.0,29.89,SE,126,0.0,0.0,84,0.01,,RA,0.00,VWS V14.01,2013-04-28 05:12:00,
2013-04-28 00:17:00,55.7,51.0,29.89,SE,126,0.0,0.0,84,0.01,,RA,0.00,VWS V14.01,2013-04-28 05:17:00,
2013-04-28 00:22:00,55.6,50.8,29.89,SE,126,0.0,0.0,84,0.00,,RA,0.00,VWS V14.01,2013-04-28 05:22:00,
2013-04-28 00:27:00,55.7,51.0,29.89,SE,126,0.0,0.0,84,0.01,,RA,0.01,VWS V14.01,2013-04-28 05:27:00,
2013-04-28 00:32:00,55.7,51.0,29.89,SE,126,0.0,0.0,84,0.02,,RA,0.02,VWS V14.01,2013-04-28 05:32:00,
2013-04-28 00:37:00,55.7,51.0,29.89,SE,126,0.0,0.0,84,0.03,,RA,0.03,VWS V14.01,2013-04-28 05:37:00,
2013-04-28 00:42:00,55.7,51.0,29.89,SE,126,0.0,0.0,84,0.03,,-RA,0.03,VWS V14.01,2013-04-28 05:42:00,
2013-04-28 00:47:00,55.7,51.0,29.89,SE,126,0.0,0.0,84,0.04,,-RA,0.04,VWS V14.01,2013-04-28 05:47:00,
2013-04-28 00:52:00,55.7,51.0,29.89,SE,126,0.0,0.0,84,0.04,,-RA,0.04,VWS V14.01,2013-04-28 05:52:00,
2013-04-28 00:57:00,55.7,51.0,29.89,SE,126,0.0,0.0,84,0.04,,-RA,0.04,VWS V14.01,2013-04-28 05:57:00,
2013-04-28 01:02:00,55.7,51.0,29.89,SE,126,0.0,0.0,84,0.04,,OVC002,0.04,VWS V14.01,2013-04-28 06:02:00,
2013-04-28 01:07:00,55.7,51.0,29.88,SE,126,0.0,0.0,84,0.05,,OVC002,0.05,VWS V14.01,2013-04-28 06:07:00,
2013-04-28 01:12:00,55.7,51.0,29.88,SE,126,0.0,0.0,84,0.05,,OVC002,0.05,VWS V14.01,2013-04-28 06:12:00,
2013-04-28 01:17:00,55.7,51.0,29.88,SE,126,0.0,0.0,84,0.05,,OVC002,0.05,VWS V14.01,2013-04-28 06:17:00,
2013-04-28 01:22:00,55.6,50.8,29.88,SE,126,0.0,0.0,84,0.05,,OVC002,0.05,VWS V14.01,2013-04-28 06:22:00,
2013-04-28 01:27:00,55.5,50.8,29.88,SE,126,0.0,0.0,84,0.05,,OVC002,0.05,VWS V14.01,2013-04-28 06:27:00,
2013-04-28 01:32:00,55.4,50.7,29.88,SE,126,0.0,0.0,84,0.04,,OVC002,0.06,VWS V14.01,2013-04-28 06:32:00,
2013-04-28 01:37:00,55.4,50.7,29.88,SE,126,0.0,0.0,84,0.04,,OVC002,0.06,VWS V14.01,2013-04-28 06:37:00,
2013-04-28 01:42:00,55.4,50.7,29.87,SE,126,0.0,0.0,84,0.03,,,0.06,VWS V14.01,2013-04-28 06:42:00,
2013-04-28 01:47:00,55.4,50.7,29.87,SE,126,0.0,0.0,84,0.03,,,0.06,VWS V14.01,2013-04-28 06:47:00,
2013-04-28 01:52:00,55.3,50.6,29.87,SE,126,0.0,0.0,84,0.03,,,0.07,VWS V14.01,2013-04-28 06:52:00,
2013-04-28 01:57:00,55.3,50.6,29.87,SE,126,0.0,0.0,84,0.03,,,0.07,VWS V14.01,2013-04-28 06:57:00,
2013-04-28 02:02:00,55.3,50.6,29.87,SE,126,0.0,0.0,84,0.03,,RA,0.07,VWS V14.01,2013-04-28 07:02:00,
2013-04-28 02:07:00,55.3,50.6,29.86,SE,126,0.0,0.0,84,0.03,,RA,0.07,VWS V14.01,2013-04-28 07:07:00,
2013-04-28 02:12:00,55.3,50.6,29.86,SE,126,0.0,0.0,84,0.02,,RA,0.07,VWS V14.01,2013-04-28 07:12:00,
2013-04-28 02:17:00,55.2,50.5,29.86,SE,126,0.0,0.0,84,0.02,,RA,0.07,VWS V14.01,2013-04-28 07:17:00,
2013-04-28 02:22:00,55.2,50.5,29.86,SE,126,0.0,0.0,84,0.02,,RA,0.07,VWS V14.01,2013-04-28 07:22:00,
2013-04-28 02:27:00,55.2,50.5,29.86,SE,126,0.0,0.0,84,0.02,,RA,0.07,VWS V14.01,2013-04-28 07:27:00,
2013-04-28 02:32:00,55.1,50.4,29.86,SE,126,0.0,0.0,84,0.01,,RA,0.07,VWS V14.01,2013-04-28 07:32:00,
2013-04-28 02:37:00,55.1,50.4,29.86,SE,126,0.0,1.0,84,0.01,,RA,0.07,VWS V14.01,2013-04-28 07:37:00,
2013-04-28 02:42:00,55.1,50.4,29.85,SE,126,0.0,0.0,84,0.01,,,0.07,VWS V14.01,2013-04-28 07:42:00,
2013-04-28 02:47:00,55.1,50.4,29.85,SE,126,0.0,0.0,84,0.01,,,0.07,VWS V14.01,2013-04-28 07:47:00,
2013-04-28 02:52:00,55.1,50.4,29.85,SE,126,0.0,0.0,84,0.00,,,0.07,VWS V14.01,2013-04-28 07:52:00,
2013-04-28 02:57:00,55.1,50.4,29.85,SE,126,0.0,1.0,84,0.00,,,0.07,VWS V14.01,2013-04-28 07:57:00,
2013-04-28 03:02:00,55.0,50.3,29.85,SE,126,0.0,0.0,84,0.00,,,0.07,VWS V14.01,2013-04-28 08:02:00,
2013-04-28 03:07:00,55.0,50.3,29.85,South,189,4.0,4.0,84,0.00,,,0.07,VWS V14.01,2013-04-28 08:07:00,
2013-04-28 03:12:00,55.0,50.3,29.85,South,189,0.0,0.0,84,0.00,,,0.07,VWS V14.01,2013-04-28 08:12:00,
2013-04-28 03:17:00,55.0,50.3,29.85,South,189,0.0,0.0,84,0.00,,,0.07,VWS V14.01,2013-04-28 08:17:00,
2013-04-28 03:22:00,55.0,50.3,29.85,South,189,0.0,0.0,84,0.00,,,0.07,VWS V14.01,2013-04-28 08:22:00,
2013-04-28 03:27:00,55.0,50.3,29.85,South,189,0.0,1.0,84,0.00,,,0.07,VWS V14.01,2013-04-28 08:27:00,
2013-04-28 03:32:00,54.9,50.2,29.84,South,189,0.0,0.0,84,0.00,,,0.07,VWS V14.01,2013-04-28 08:32:00,
2013-04-28 03:37:00,54.9,50.2,29.85,South,189,0.0,2.0,84,0.00,,,0.07,VWS V14.01,2013-04-28 08:37:00,
2013-04-28 03:42:00,55.0,50.3,29.84,South,189,0.0,1.0,84,0.00,,,0.07,VWS V14.01,2013-04-28 08:42:00,
2013-04-28 03:47:00,54.9,50.2,29.84,South,189,0.0,1.0,84,0.01,,,0.08,VWS V14.01,2013-04-28 08:47:00,
2013-04-28 03:52:00,54.9,50.2,29.84,South,189,0.0,3.0,84,0.01,,,0.08,VWS V14.01,2013-04-28 08:52:00,
2013-04-28 03:57:00,54.8,50.1,29.84,South,189,0.0,3.0,84,0.01,,,0.08,VWS V14.01,2013-04-28 08:57:00,
2013-04-28 04:02:00,54.8,50.1,29.84,SW,217,0.0,2.0,84,0.01,,,0.08,VWS V14.01,2013-04-28 09:02:00,
2013-04-28 04:07:00,54.8,50.1,29.85,SW,220,0.0,4.0,84,0.01,,,0.08,VWS V14.01,2013-04-28 09:07:00,
2013-04-28 04:12:00,54.7,50.0,29.85,SW,220,3.0,3.0,84,0.01,,,0.08,VWS V14.01,2013-04-28 09:12:00,
2013-04-28 04:17:00,54.7,50.0,29.85,SW,228,0.0,4.0,84,0.01,,,0.08,VWS V14.01,2013-04-28 09:17:00,
2013-04-28 04:22:00,54.7,50.0,29.86,SW,236,3.0,4.0,84,0.01,,,0.08,VWS V14.01,2013-04-28 09:22:00,
2013-04-28 04:27:00,54.6,49.9,29.86,SW,236,1.0,4.0,84,0.01,,,0.08,VWS V14.01,2013-04-28 09:27:00,
2013-04-28 04:32:00,54.5,49.8,29.85,SW,236,0.0,2.0,84,0.01,,,0.08,VWS V14.01,2013-04-28 09:32:00,
2013-04-28 04:37:00,54.5,49.8,29.85,WSW,237,0.0,5.0,84,0.01,,,0.08,VWS V14.01,2013-04-28 09:37:00,
2013-04-28 04:42:00,54.4,49.7,29.85,WSW,237,0.0,0.0,84,0.01,,,0.08,VWS V14.01,2013-04-28 09:42:00,
2013-04-28 04:47:00,54.4,49.7,29.85,WSW,238,1.0,3.0,84,0.01,,,0.08,VWS V14.01,2013-04-28 09:47:00,
2013-04-28 04:52:00,54.3,49.6,29.85,WSW,247,3.0,4.0,84,0.00,,,0.08,VWS V14.01,2013-04-28 09:52:00,
2013-04-28 04:57:00,54.2,49.5,29.85,WSW,243,0.0,5.0,84,0.00,,,0.08,VWS V14.01,2013-04-28 09:57:00,
2013-04-28 05:02:00,54.2,49.5,29.86,West,265,0.0,1.0,84,0.00,,,0.08,VWS V14.01,2013-04-28 10:02:00,
2013-04-28 05:07:00,54.2,49.5,29.86,West,265,1.0,3.0,84,0.00,,,0.08,VWS V14.01,2013-04-28 10:07:00,
2013-04-28 05:12:00,54.1,49.4,29.86,WSW,249,2.0,5.0,84,0.00,,,0.08,VWS V14.01,2013-04-28 10:12:00,
2013-04-28 05:17:00,54.1,49.7,29.86,West,259,2.0,5.0,85,0.00,,,0.08,VWS V14.01,2013-04-28 10:17:00,
2013-04-28 05:22:00,54.1,49.7,29.86,WSW,250,3.0,4.0,85,0.00,,,0.08,VWS V14.01,2013-04-28 10:22:00,
2013-04-28 05:27:00,54.0,49.6,29.86,West,273,0.0,6.0,85,0.00,,,0.08,VWS V14.01,2013-04-28 10:27:00,
2013-04-28 05:32:00,53.9,49.5,29.86,WSW,254,0.0,5.0,85,0.00,,,0.08,VWS V14.01,2013-04-28 10:32:00,
2013-04-28 05:37:00,53.9,49.2,29.87,WSW,250,3.0,7.0,84,0.00,,,0.08,VWS V14.01,2013-04-28 10:37:00,
2013-04-28 05:42:00,53.9,49.2,29.87,WSW,247,0.0,3.0,84,0.00,,,0.08,VWS V14.01,2013-04-28 10:42:00,
2013-04-28 05:47:00,53.8,49.1,29.87,WSW,258,3.0,7.0,84,0.00,,,0.08,VWS V14.01,2013-04-28 10:47:00,
2013-04-28 05:52:00,53.7,49.0,29.87,West,281,0.0,2.0,84,0.00,,,0.08,VWS V14.01,2013-04-28 10:52:00,
2013-04-28 05:57:00,53.7,49.0,29.87,SW,221,3.0,5.0,84,0.00,,,0.08,VWS V14.01,2013-04-28 10:57:00,
2013-04-28 06:02:00,53.7,49.3,29.88,WSW,249,0.0,0.0,85,0.00,,,0.08,VWS V14.01,2013-04-28 11:02:00,
2013-04-28 06:07:00,53.7,49.3,29.88,WSW,250,4.0,6.0,85,0.00,,,0.08,VWS V14.01,2013-04-28 11:07:00,
2013-04-28 06:12:00,53.7,49.3,29.88,West,262,0.0,2.0,85,0.00,,,0.08,VWS V14.01,2013-04-28 11:12:00,
2013-04-28 06:17:00,53.6,49.2,29.88,WNW,296,0.0,5.0,85,0.00,,,0.08,VWS V14.01,2013-04-28 11:17:00,
2013-04-28 06:22:00,53.6,49.2,29.88,WSW,246,1.0,4.0,85,0.00,,,0.08,VWS V14.01,2013-04-28 11:22:00,
2013-04-28 06:27:00,53.6,49.2,29.88,WSW,250,2.0,5.0,85,0.00,,,0.08,VWS V14.01,2013-04-28 11:27:00,
2013-04-28 06:32:00,53.6,49.2,29.88,WSW,243,3.0,5.0,85,0.00,,,0.08,VWS V14.01,2013-04-28 11:32:00,
2013-04-28 06:37:00,53.6,49.2,29.88,WSW,251,9.0,9.0,85,0.00,,,0.08,VWS V14.01,2013-04-28 11:37:00,
2013-04-28 06:42:00,53.5,49.1,29.88,WSW,254,0.0,2.0,85,0.00,,,0.08,VWS V14.01,2013-04-28 11:42:00,
2013-04-28 06:47:00,53.5,49.1,29.88,West,271,0.0,8.0,85,0.00,,,0.08,VWS V14.01,2013-04-28 11:47:00,
2013-04-28 06:52:00,53.5,49.1,29.88,WSW,254,1.0,4.0,85,0.00,,,0.08,VWS V14.01,2013-04-28 11:52:00,
2013-04-28 06:57:00,53.5,49.1,29.88,WSW,244,3.0,5.0,85,0.00,,,0.08,VWS V14.01,2013-04-28 11:57:00,
2013-04-28 07:02:00,53.5,49.1,29.88,West,280,3.0,5.0,85,0.00,,,0.08,VWS V14.01,2013-04-28 12:02:00,
2013-04-28 07:07:00,53.5,49.1,29.88,WSW,244,2.0,5.0,85,0.00,,,0.08,VWS V14.01,2013-04-28 12:07:00,
2013-04-28 07:12:00,53.4,49.0,29.89,SW,234,0.0,4.0,85,0.00,,,0.08,VWS V14.01,2013-04-28 12:12:00,
2013-04-28 07:17:00,53.4,49.0,29.89,WSW,238,1.0,4.0,85,0.00,,,0.08,VWS V14.01,2013-04-28 12:17:00,
2013-04-28 07:22:00,53.4,49.0,29.89,WSW,239,1.0,3.0,85,0.00,,,0.08,VWS V14.01,2013-04-28 12:22:00,
2013-04-28 07:27:00,53.4,49.0,29.89,WSW,258,4.0,6.0,85,0.00,,,0.08,VWS V14.01,2013-04-28 12:27:00,
2013-04-28 07:32:00,53.4,49.0,29.90,WSW,257,0.0,6.0,85,0.00,,,0.08,VWS V14.01,2013-04-28 12:32:00,
2013-04-28 07:37:00,53.3,48.9,29.90,West,270,0.0,10.0,85,0.00,,,0.08,VWS V14.01,2013-04-28 12:37:00,
2013-04-28 07:42:00,53.3,48.9,29.90,WNW,286,3.0,4.0,85,0.00,,,0.08,VWS V14.01,2013-04-28 12:42:00,
2013-04-28 07:47:00,53.3,48.9,29.90,West,281,0.0,5.0,85,0.00,,,0.08,VWS V14.01,2013-04-28 12:47:00,
2013-04-28 07:52:00,53.3,48.9,29.90,WSW,254,0.0,4.0,85,0.00,,,0.08,VWS V14.01,2013-04-28 12:52:00,
2013-04-28 07:58:00,53.3,48.9,29.90,West,265,0.0,4.0,85,0.00,,,0.08,VWS V14.01,2013-04-28 12:58:00,
2013-04-28 08:03:00,53.3,48.9,29.90,West,265,6.0,9.0,85,0.00,,,0.08,VWS V14.01,2013-04-28 13:03:00,
2013-04-28 08:08:00,53.3,48.9,29.90,NW,321,0.0,9.0,85,0.00,,,0.08,VWS V14.01,2013-04-28 13:08:00,
2013-04-28 08:13:00,53.3,48.9,29.90,WSW,252,2.0,5.0,85,0.00,,,0.08,VWS V14.01,2013-04-28 13:13:00,
2013-04-28 08:18:00,53.3,48.9,29.90,West,259,0.0,5.0,85,0.00,,,0.08,VWS V14.01,2013-04-28 13:18:00,
2013-04-28 08:23:00,53.4,49.0,29.90,SW,233,2.0,6.0,85,0.00,,,0.08,VWS V14.01,2013-04-28 13:23:00,
2013-04-28 08:28:00,53.4,49.0,29.89,WSW,240,0.0,6.0,85,0.00,,,0.08,VWS V14.01,2013-04-28 13:28:00,
2013-04-28 08:33:00,53.5,49.1,29.89,WSW,238,1.0,1.0,85,0.00,,,0.08,VWS V14.01,2013-04-28 13:33:00,
2013-04-28 08:38:00,53.6,49.2,29.90,WSW,255,7.0,9.0,85,0.00,,,0.08,VWS V14.01,2013-04-28 13:38:00,
2013-04-28 08:43:00,53.6,49.2,29.90,West,271,0.0,2.0,85,0.00,,,0.08,VWS V14.01,2013-04-28 13:43:00,
2013-04-28 08:48:00,53.7,49.3,29.90,West,271,0.0,2.0,85,0.00,,,0.08,VWS V14.01,2013-04-28 13:48:00,
2013-04-28 08:53:00,53.7,49.3,29.89,WNW,288,2.0,3.0,85,0.00,,,0.08,VWS V14.01,2013-04-28 13:53:00,
2013-04-28 08:58:00,53.6,49.2,29.90,WNW,288,2.0,4.0,85,0.00,,,0.08,VWS V14.01,2013-04-28 13:58:00,
2013-04-28 09:03:00,53.7,49.3,29.90,WSW,248,0.0,0.0,85,0.00,,,0.08,VWS V14.01,2013-04-28 14:03:00,
2013-04-28 09:08:00,53.7,49.3,29.90,West,262,4.0,8.0,85,0.00,,,0.08,VWS V14.01,2013-04-28 14:08:00,
2013-04-28 09:13:00,53.7,49.3,29.90,NW,309,3.0,5.0,85,0.00,,,0.08,VWS V14.01,2013-04-28 14:13:00,
2013-04-28 09:18:00,53.7,49.3,29.90,WSW,247,4.0,5.0,85,0.00,,,0.08,VWS V14.01,2013-04-28 14:18:00,
2013-04-28 09:23:00,53.8,49.4,29.90,WSW,247,1.0,2.0,85,0.00,,,0.08,VWS V14.01,2013-04-28 14:23:00,
2013-04-28 09:28:00,53.9,49.5,29.90,WSW,242,0.0,5.0,85,0.00,,,0.08,VWS V14.01,2013-04-28 14:28:00,
2013-04-28 09:33:00,54.0,49.6,29.90,West,263,0.0,1.0,85,0.00,,,0.08,VWS V14.01,2013-04-28 14:33:00,
2013-04-28 09:38:00,53.9,49.5,29.90,West,279,0.0,8.0,85,0.00,,,0.08,VWS V14.01,2013-04-28 14:38:00,
2013-04-28 09:43:00,53.9,49.5,29.90,WSW,252,2.0,5.0,85,0.00,,,0.08,VWS V14.01,2013-04-28 14:43:00,
2013-04-28 09:48:00,53.8,49.4,29.90,WNW,283,2.0,8.0,85,0.00,,,0.08,VWS V14.01,2013-04-28 14:48:00,
2013-04-28 09:53:00,53.9,49.5,29.90,WSW,247,1.0,3.0,85,0.00,,,0.08,VWS V14.01,2013-04-28 14:53:00,
2013-04-28 09:58:00,53.9,49.5,29.90,West,264,1.0,7.0,85,0.00,,,0.08,VWS V14.01,2013-04-28 14:58:00,
2013-04-28 10:03:00,54.0,49.6,29.90,West,259,0.0,3.0,85,0.00,,OVC004,0.08,VWS V14.01,2013-04-28 15:03:00,
2013-04-28 10:08:00,54.0,49.6,29.90,North,5,0.0,4.0,85,0.00,,OVC004,0.08,VWS V14.01,2013-04-28 15:08:00,
2013-04-28 10:13:00,54.0,49.6,29.90,WNW,302,0.0,3.0,85,0.00,,OVC004,0.08,VWS V14.01,2013-04-28 15:13:00,
2013-04-28 10:18:00,53.9,49.5,29.90,WNW,284,5.0,8.0,85,0.00,,OVC004,0.08,VWS V14.01,2013-04-28 15:18:00,
2013-04-28 10:23:00,54.0,49.6,29.91,NW,315,4.0,4.0,85,0.00,,OVC004,0.08,VWS V14.01,2013-04-28 15:23:00,
2013-04-28 10:28:00,54.0,49.6,29.91,WSW,252,0.0,4.0,85,0.00,,OVC004,0.08,VWS V14.01,2013-04-28 15:28:00,
2013-04-28 10:33:00,54.1,49.7,29.91,West,273,5.0,9.0,85,0.00,,OVC004,0.08,VWS V14.01,2013-04-28 15:33:00,
2013-04-28 10:38:00,54.1,49.7,29.91,West,263,0.0,9.0,85,0.00,,OVC004,0.08,VWS V14.01,2013-04-28 15:38:00,
2013-04-28 10:43:00,54.1,49.7,29.91,NW,323,3.0,4.0,85,0.00,,OVC004,0.08,VWS V14.01,2013-04-28 15:43:00,
2013-04-28 10:48:00,54.1,49.7,29.91,NW,312,3.0,6.0,85,0.00,,OVC004,0.08,VWS V14.01,2013-04-28 15:48:00,
2013-04-28 10:53:00,54.2,49.8,29.91,NW,313,4.0,5.0,85,0.00,,OVC004,0.08,VWS V14.01,2013-04-28 15:53:00,
2013-04-28 10:58:00,54.2,49.8,29.92,NW,304,2.0,5.0,85,0.00,,OVC004,0.08,VWS V14.01,2013-04-28 15:58:00,
2013-04-28 11:08:00,54.2,49.8,29.92,NW,306,0.0,6.0,85,0.00,,OVC006,0.08,VWS V14.01,2013-04-28 16:08:00,
2013-04-28 11:13:00,54.2,49.8,29.92,NW,324,4.0,5.0,85,0.00,,OVC006,0.08,VWS V14.01,2013-04-28 16:13:00,
2013-04-28 11:18:00,54.2,49.8,29.92,WNW,302,1.0,7.0,85,0.00,,OVC006,0.08,VWS V14.01,2013-04-28 16:18:00,
2013-04-28 11:23:00,54.3,49.9,29.92,NW,304,1.0,5.0,85,0.00,,OVC006,0.08,VWS V14.01,2013-04-28 16:23:00,
2013-04-28 11:28:00,54.2,49.5,29.92,NW,309,0.0,7.0,84,0.00,,OVC006,0.08,VWS V14.01,2013-04-28 16:28:00,
2013-04-28 11:33:00,54.3,49.6,29.92,WNW,297,3.0,5.0,84,0.00,,OVC006,0.08,VWS V14.01,2013-04-28 16:33:00,
2013-04-28 11:38:00,54.3,49.6,29.92,West,261,2.0,5.0,84,0.00,,OVC006,0.08,VWS V14.01,2013-04-28 16:38:00,
2013-04-28 11:43:00,54.3,49.6,29.92,West,271,0.0,3.0,84,0.00,,,0.08,VWS V14.01,2013-04-28 16:43:00,
2013-04-28 11:48:00,54.4,49.7,29.92,WSW,246,3.0,7.0,84,0.00,,,0.08,VWS V14.01,2013-04-28 16:48:00,
2013-04-28 11:53:00,54.4,49.7,29.92,WNW,284,2.0,7.0,84,0.00,,,0.08,VWS V14.01,2013-04-28 16:53:00,
2013-04-28 11:58:00,54.3,49.6,29.92,NW,316,0.0,7.0,84,0.00,,,0.08,VWS V14.01,2013-04-28 16:58:00,
2013-04-28 12:03:00,54.3,49.6,29.92,WNW,303,1.0,8.0,84,0.00,,,0.08,VWS V14.01,2013-04-28 17:03:00,
2013-04-28 12:08:00,54.4,49.7,29.92,West,277,3.0,8.0,84,0.00,,,0.08,VWS V14.01,2013-04-28 17:08:00,
2013-04-28 12:13:00,54.4,49.7,29.92,WNW,282,1.0,6.0,84,0.00,,,0.08,VWS V14.01,2013-04-28 17:13:00,
2013-04-28 12:18:00,54.5,49.8,29.92,West,266,2.0,6.0,84,0.00,,,0.08,VWS V14.01,2013-04-28 17:18:00,
2013-04-28 12:23:00,54.4,49.7,29.92,NW,312,1.0,5.0,84,0.00,,,0.08,VWS V14.01,2013-04-28 17:23:00,
2013-04-28 12:28:00,54.4,49.7,29.92,West,259,8.0,9.0,84,0.00,,,0.08,VWS V14.01,2013-04-28 17:28:00,
2013-04-28 12:33:00,54.5,49.8,29.92,West,277,0.0,0.0,84,0.00,,,0.08,VWS V14.01,2013-04-28 17:33:00,
2013-04-28 12:38:00,54.5,49.8,29.92,WNW,298,5.0,5.0,84,0.00,,,0.08,VWS V14.01,2013-04-28 17:38:00,
2013-04-28 12:43:00,54.5,49.8,29.92,NW,307,4.0,5.0,84,0.00,,,0.08,VWS V14.01,2013-04-28 17:43:00,
2013-04-28 12:48:00,54.6,49.9,29.92,West,279,2.0,5.0,84,0.00,,,0.08,VWS V14.01,2013-04-28 17:48:00,
2013-04-28 12:53:00,54.7,50.0,29.92,West,262,0.0,1.0,84,0.00,,,0.08,VWS V14.01,2013-04-28 17:53:00,
2013-04-28 12:58:00,54.8,50.1,29.92,West,271,0.0,3.0,84,0.00,,,0.08,VWS V14.01,2013-04-28 17:58:00,
2013-04-28 13:03:00,55.0,50.3,29.92,WNW,293,5.0,5.0,84,0.00,,,0.08,VWS V14.01,2013-04-28 18:03:00,
2013-04-28 13:08:00,55.0,50.3,29.92,WNW,292,0.0,6.0,84,0.00,,,0.08,VWS V14.01,2013-04-28 18:08:00,
2013-04-28 13:13:00,55.1,50.4,29.92,West,271,0.0,1.0,84,0.00,,,0.08,VWS V14.01,2013-04-28 18:13:00,
2013-04-28 13:18:00,55.0,50.3,29.92,NW,311,3.0,4.0,84,0.00,,,0.08,VWS V14.01,2013-04-28 18:18:00,
2013-04-28 13:23:00,55.0,50.3,29.92,West,277,2.0,3.0,84,0.00,,,0.08,VWS V14.01,2013-04-28 18:23:00,
2013-04-28 13:28:00,55.1,50.4,29.92,NW,311,5.0,6.0,84,0.00,,,0.08,VWS V14.01,2013-04-28 18:28:00,
2013-04-28 13:33:00,55.0,50.3,29.92,NW,304,1.0,4.0,84,0.00,,,0.08,VWS V14.01,2013-04-28 18:33:00,
2013-04-28 13:38:00,55.1,50.4,29.92,NW,306,0.0,7.0,84,0.00,,,0.08,VWS V14.01,2013-04-28 18:38:00,
2013-04-28 13:43:00,55.3,50.6,29.92,WSW,244,0.0,1.0,84,0.00,,,0.08,VWS V14.01,2013-04-28 18:43:00,
2013-04-28 13:48:00,55.6,50.8,29.92,WSW,244,0.0,2.0,84,0.00,,,0.08,VWS V14.01,2013-04-28 18:48:00,
2013-04-28 13:53:00,55.6,50.5,29.92,WSW,242,0.0,6.0,83,0.00,,,0.08,VWS V14.01,2013-04-28 18:53:00,
2013-04-28 13:58:00,55.6,50.5,29.92,WSW,244,1.0,6.0,83,0.00,,,0.08,VWS V14.01,2013-04-28 18:58:00,
2013-04-28 14:03:00,55.6,50.5,29.92,SW,229,1.0,6.0,83,0.00,,,0.08,VWS V14.01,2013-04-28 19:03:00,
2013-04-28 14:08:00,55.7,50.6,29.92,SW,230,0.0,6.0,83,0.00,,,0.08,VWS V14.01,2013-04-28 19:08:00,
2013-04-28 14:13:00,55.8,50.7,29.92,SW,230,1.0,1.0,83,0.00,,,0.08,VWS V14.01,2013-04-28 19:13:00,
2013-04-28 14:18:00,55.9,50.8,29.92,SW,230,0.0,2.0,83,0.00,,,0.08,VWS V14.01,2013-04-28 19:18:00,
2013-04-28 14:23:00,56.0,50.9,29.93,SW,230,0.0,2.0,83,0.00,,,0.08,VWS V14.01,2013-04-28 19:23:00,
2013-04-28 14:28:00,56.0,50.9,29.93,WNW,289,1.0,4.0,83,0.00,,,0.08,VWS V14.01,2013-04-28 19:28:00,
2013-04-28 14:33:00,56.1,51.0,29.92,West,263,0.0,4.0,83,0.00,,,0.08,VWS V14.01,2013-04-28 19:33:00,
2013-04-28 14:38:00,56.2,51.1,29.92,WSW,243,0.0,4.0,83,0.00,,,0.08,VWS V14.01,2013-04-28 19:38:00,
2013-04-28 14:43:00,56.4,51.3,29.92,WSW,251,4.0,6.0,83,0.00,,,0.08,VWS V14.01,2013-04-28 19:43:00,
2013-04-28 14:48:00,56.7,51.6,29.92,WSW,249,0.0,6.0,83,0.00,,,0.08,VWS V14.01,2013-04-28 19:48:00,
2013-04-28 14:53:00,56.8,51.7,29.92,WSW,241,0.0,5.0,83,0.00,,,0.08,VWS V14.01,2013-04-28 19:53:00,
2013-04-28 14:58:00,56.9,51.8,29.92,WSW,241,0.0,5.0,83,0.00,,,0.08,VWS V14.01,2013-04-28 19:58:00,
2013-04-28 15:03:00,57.0,51.9,29.92,WSW,241,0.0,0.0,83,0.00,,,0.08,VWS V14.01,2013-04-28 20:03:00,
2013-04-28 15:08:00,57.1,52.0,29.92,WNW,291,0.0,3.0,83,0.00,,,0.08,VWS V14.01,2013-04-28 20:08:00,
2013-04-28 15:13:00,57.2,52.1,29.92,WNW,291,0.0,3.0,83,0.00,,,0.08,VWS V14.01,2013-04-28 20:13:00,
2013-04-28 15:18:00,57.4,52.3,29.92,WSW,244,4.0,4.0,83,0.00,,,0.08,VWS V14.01,2013-04-28 20:18:00,
2013-04-28 15:23:00,57.4,52.3,29.92,SW,228,0.0,5.0,83,0.00,,,0.08,VWS V14.01,2013-04-28 20:23:00,
2013-04-28 15:29:00,57.4,52.3,29.91,WSW,250,4.0,7.0,83,0.00,,,0.08,VWS V14.01,2013-04-28 20:29:00,
2013-04-28 15:34:00,57.3,52.2,29.91,West,271,0.0,6.0,83,0.00,,,0.08,VWS V14.01,2013-04-28 20:34:00,
2013-04-28 15:39:00,57.3,52.2,29.91,WSW,255,0.0,6.0,83,0.00,,,0.08,VWS V14.01,2013-04-28 20:39:00,
2013-04-28 15:44:00,57.5,52.4,29.91,West,269,0.0,1.0,83,0.00,,OVC012,0.08,VWS V14.01,2013-04-28 20:44:00,
2013-04-28 15:49:00,57.7,52.6,29.91,West,264,0.0,3.0,83,0.00,,OVC012,0.08,VWS V14.01,2013-04-28 20:49:00,
2013-04-28 15:54:00,57.8,52.7,29.91,West,266,0.0,4.0,83,0.00,,OVC012,0.08,VWS V14.01,2013-04-28 20:54:00,
2013-04-28 15:59:00,57.8,52.7,29.91,NW,324,4.0,5.0,83,0.00,,OVC012,0.08,VWS V14.01,2013-04-28 20:59:00,
2013-04-28 16:04:00,57.8,52.7,29.90,WNW,289,1.0,4.0,83,0.00,,,0.08,VWS V14.01,2013-04-28 21:04:00,
2013-04-28 16:09:00,58.0,52.9,29.91,WNW,284,0.0,4.0,83,0.00,,,0.08,VWS V14.01,2013-04-28 21:09:00,
2013-04-28 16:14:00,58.2,53.1,29.91,West,269,0.0,1.0,83,0.00,,,0.08,VWS V14.01,2013-04-28 21:14:00,
2013-04-28 16:19:00,58.4,53.3,29.91,SW,235,0.0,6.0,83,0.00,,,0.08,VWS V14.01,2013-04-28 21:19:00,
2013-04-28 16:24:00,58.5,53.0,29.90,WSW,252,3.0,6.0,82,0.00,,,0.08,VWS V14.01,2013-04-28 21:24:00,
2013-04-28 16:29:00,58.6,53.1,29.90,West,267,2.0,6.0,82,0.00,,,0.08,VWS V14.01,2013-04-28 21:29:00,
2013-04-28 16:34:00,58.5,53.0,29.91,West,263,3.0,3.0,82,0.00,,,0.08,VWS V14.01,2013-04-28 21:34:00,
2013-04-28 16:39:00,58.4,52.9,29.91,WNW,298,0.0,5.0,82,0.00,,,0.08,VWS V14.01,2013-04-28 21:39:00,
2013-04-28 16:44:00,58.3,52.8,29.91,WSW,256,5.0,9.0,82,0.00,,OVC022,0.08,VWS V14.01,2013-04-28 21:44:00,
2013-04-28 16:49:00,58.2,52.7,29.91,WNW,290,2.0,10.0,82,0.00,,OVC022,0.08,VWS V14.01,2013-04-28 21:49:00,
2013-04-28 16:54:00,58.2,52.7,29.90,WSW,246,6.0,6.0,82,0.00,,OVC022,0.08,VWS V14.01,2013-04-28 21:54:00,
2013-04-28 16:59:00,58.4,52.9,29.91,WSW,243,1.0,7.0,82,0.00,,OVC022,0.08,VWS V14.01,2013-04-28 21:59:00,
2013-04-28 17:04:00,58.6,53.1,29.90,West,262,3.0,4.0,82,0.00,,OVC022,0.08,VWS V14.01,2013-04-28 22:04:00,
2013-04-28 17:09:00,58.6,53.1,29.91,WSW,244,1.0,8.0,82,0.00,,OVC022,0.08,VWS V14.01,2013-04-28 22:09:00,
2013-04-28 17:14:00,58.7,52.9,29.90,West,269,1.0,5.0,81,0.00,,OVC022,0.08,VWS V14.01,2013-04-28 22:14:00,
2013-04-28 17:19:00,58.8,53.0,29.91,WSW,255,1.0,5.0,81,0.00,,OVC022,0.08,VWS V14.01,2013-04-28 22:19:00,
2013-04-28 17:24:00,58.7,52.9,29.90,WSW,253,3.0,11.0,81,0.00,,OVC022,0.08,VWS V14.01,2013-04-28 22:24:00,
2013-04-28 17:29:00,58.8,53.0,29.90,NW,305,5.0,11.0,81,0.00,,OVC022,0.08,VWS V14.01,2013-04-28 22:29:00,
2013-04-28 17:34:00,58.7,52.9,29.90,NW,308,1.0,6.0,81,0.00,,OVC022,0.08,VWS V14.01,2013-04-28 22:34:00,
2013-04-28 17:39:00,58.8,53.0,29.90,West,274,0.0,6.0,81,0.00,,OVC022,0.08,VWS V14.01,2013-04-28 22:39:00,
2013-04-28 17:44:00,59.1,53.3,29.89,NW,310,0.0,4.0,81,0.00,,OVC027,0.08,VWS V14.01,2013-04-28 22:44:00,
2013-04-28 17:49:00,59.4,53.6,29.90,WSW,241,2.0,4.0,81,0.00,,OVC027,0.08,VWS V14.01,2013-04-28 22:49:00,
2013-04-28 17:54:00,59.4,53.6,29.90,West,259,0.0,1.0,81,0.00,,OVC027,0.08,VWS V14.01,2013-04-28 22:54:00,
2013-04-28 17:59:00,59.3,53.5,29.90,WSW,257,0.0,2.0,81,0.00,,OVC027,0.08,VWS V14.01,2013-04-28 22:59:00,
2013-04-28 18:04:00,59.3,53.1,29.90,WSW,244,4.0,7.0,80,0.00,,OVC031,0.08,VWS V14.01,2013-04-28 23:04:00,
2013-04-28 18:09:00,59.3,53.1,29.90,WSW,247,2.0,9.0,80,0.00,,OVC031,0.08,VWS V14.01,2013-04-28 23:09:00,
2013-04-28 18:14:00,59.2,53.0,29.90,SW,223,9.0,12.0,80,0.00,,OVC031,0.08,VWS V14.01,2013-04-28 23:14:00,
2013-04-28 18:19:00,59.3,53.1,29.89,WSW,248,0.0,12.0,80,0.00,,OVC031,0.08,VWS V14.01,2013-04-28 23:19:00,
2013-04-28 18:24:00,59.3,52.8,29.89,West,260,1.0,2.0,79,0.00,,OVC031,0.08,VWS V14.01,2013-04-28 23:24:00,
2013-04-28 18:29:00,59.1,52.6,29.89,WSW,239,0.0,6.0,79,0.00,,OVC031,0.08,VWS V14.01,2013-04-28 23:29:00,
2013-04-28 18:34:00,58.9,52.8,29.90,West,262,3.0,7.0,80,0.00,,OVC031,0.08,VWS V14.01,2013-04-28 23:34:00,
2013-04-28 18:39:00,58.7,52.6,29.90,WSW,238,0.0,7.0,80,0.00,,OVC031,0.08,VWS V14.01,2013-04-28 23:39:00,
2013-04-28 18:44:00,58.6,52.5,29.90,WSW,250,6.0,7.0,80,0.00,,SCT033,0.08,VWS V14.01,2013-04-28 23:44:00,
2013-04-28 18:49:00,58.5,52.4,29.90,SW,226,6.0,7.0,80,0.00,,SCT033,0.08,VWS V14.01,2013-04-28 23:49:00,
2013-04-28 18:54:00,58.4,52.3,29.90,WSW,245,0.0,5.0,80,0.00,,SCT033,0.08,VWS V14.01,2013-04-28 23:54:00,
2013-04-28 18:59:00,58.4,52.3,29.90,WSW,245,0.0,5.0,80,0.00,,SCT033,0.08,VWS V14.01,2013-04-28 23:59:00,
2013-04-28 19:04:00,58.3,52.5,29.90,NW,315,0.0,1.0,81,0.00,,SCT030,0.08,VWS V14.01,2013-04-29 00:04:00,
2013-04-28 19:09:00,58.2,52.4,29.91,WSW,258,2.0,4.0,81,0.00,,SCT030,0.08,VWS V14.01,2013-04-29 00:09:00,
2013-04-28 19:14:00,58.1,52.3,29.91,WNW,296,2.0,3.0,81,0.00,,SCT030,0.08,VWS V14.01,2013-04-29 00:14:00,
2013-04-28 19:19:00,58.0,51.9,29.91,WSW,250,2.0,5.0,80,0.00,,SCT030,0.08,VWS V14.01,2013-04-29 00:19:00,
2013-04-28 19:24:00,57.8,52.0,29.91,SW,236,4.0,4.0,81,0.00,,BKN028,0.08,VWS V14.01,2013-04-29 00:24:00,
2013-04-28 19:29:00,57.7,51.9,29.91,WSW,237,0.0,4.0,81,0.00,,BKN028,0.08,VWS V14.01,2013-04-29 00:29:00,
2013-04-28 19:34:00,57.5,51.7,29.91,NW,308,0.0,4.0,81,0.00,,BKN028,0.08,VWS V14.01,2013-04-29 00:34:00,
2013-04-28 19:39:00,57.4,51.6,29.91,SW,218,2.0,4.0,81,0.00,,BKN028,0.08,VWS V14.01,2013-04-29 00:39:00,
2013-04-28 19:44:00,57.3,51.5,29.90,SW,218,0.0,1.0,81,0.00,,OVC022,0.08,VWS V14.01,2013-04-29 00:44:00,
2013-04-28 19:49:00,57.1,51.3,29.90,SW,218,0.0,3.0,81,0.00,,OVC022,0.08,VWS V14.01,2013-04-29 00:49:00,
2013-04-28 19:54:00,57.0,51.2,29.90,SW,218,0.0,0.0,81,0.00,,OVC022,0.08,VWS V14.01,2013-04-29 00:54:00,
2013-04-28 19:59:00,56.8,51.0,29.91,SW,218,0.0,1.0,81,0.00,,OVC022,0.08,VWS V14.01,2013-04-29 00:59:00,
2013-04-28 20:04:00,56.7,50.9,29.91,SW,218,0.0,1.0,81,0.00,,OVC027,0.08,VWS V14.01,2013-04-29 01:04:00,
2013-04-28 20:09:00,56.5,51.1,29.90,SW,218,0.0,1.0,82,0.00,,OVC027,0.08,VWS V14.01,2013-04-29 01:09:00,
2013-04-28 20:14:00,56.3,50.9,29.91,SW,218,0.0,2.0,82,0.00,,OVC027,0.08,VWS V14.01,2013-04-29 01:14:00,
2013-04-28 20:19:00,56.2,50.8,29.90,SW,218,0.0,2.0,82,0.00,,OVC027,0.08,VWS V14.01,2013-04-29 01:19:00,
2013-04-28 20:24:00,56.1,50.7,29.90,SW,234,2.0,4.0,82,0.00,,OVC027,0.08,VWS V14.01,2013-04-29 01:24:00,
2013-04-28 20:29:00,56.0,50.6,29.91,WSW,240,0.0,5.0,82,0.00,,OVC027,0.08,VWS V14.01,2013-04-29 01:29:00,
2013-04-28 20:34:00,56.0,50.6,29.91,WSW,240,0.0,1.0,82,0.00,,OVC027,0.08,VWS V14.01,2013-04-29 01:34:00,
2013-04-28 20:39:00,55.9,50.5,29.91,WSW,240,1.0,4.0,82,0.00,,OVC027,0.08,VWS V14.01,2013-04-29 01:39:00,
2013-04-28 20:44:00,55.8,50.4,29.91,WSW,240,0.0,3.0,82,0.00,,OVC025,0.08,VWS V14.01,2013-04-29 01:44:00,
2013-04-28 20:49:00,55.7,50.3,29.91,WSW,240,0.0,3.0,82,0.00,,OVC025,0.08,VWS V14.01,2013-04-29 01:49:00,
2013-04-28 20:54:00,55.6,50.2,29.91,WSW,240,0.0,0.0,82,0.00,,OVC025,0.08,VWS V14.01,2013-04-29 01:54:00,
2013-04-28 20:59:00,55.4,50.0,29.91,WSW,240,0.0,1.0,82,0.00,,OVC025,0.08,VWS V14.01,2013-04-29 01:59:00,
2013-04-28 21:04:00,55.3,49.9,29.91,WSW,240,0.0,0.0,82,0.00,,BKN025,0.08,VWS V14.01,2013-04-29 02:04:00,
2013-04-28 21:09:00,55.1,50.0,29.91,WSW,240,0.0,0.0,83,0.00,,BKN025,0.08,VWS V14.01,2013-04-29 02:09:00,
2013-04-28 21:14:00,54.9,49.8,29.92,WSW,240,0.0,0.0,83,0.00,,BKN025,0.08,VWS V14.01,2013-04-29 02:14:00,
2013-04-28 21:19:00,54.7,49.7,29.92,WSW,240,0.0,0.0,83,0.00,,BKN025,0.08,VWS V14.01,2013-04-29 02:19:00,
2013-04-28 21:24:00,54.4,49.3,29.92,WSW,240,0.0,0.0,83,0.00,,BKN025,0.08,VWS V14.01,2013-04-29 02:24:00,
2013-04-28 21:29:00,54.1,49.1,29.92,WSW,240,0.0,0.0,83,0.00,,BKN025,0.08,VWS V14.01,2013-04-29 02:29:00,
2013-04-28 21:34:00,53.9,48.9,29.93,WSW,240,0.0,0.0,83,0.00,,BKN025,0.08,VWS V14.01,2013-04-29 02:34:00,
2013-04-28 21:39:00,53.7,48.7,29.93,WSW,240,0.0,0.0,83,0.00,,BKN025,0.08,VWS V14.01,2013-04-29 02:39:00,
2013-04-28 21:44:00,53.6,48.6,29.93,WSW,240,0.0,0.0,83,0.00,,CLR,0.08,VWS V14.01,2013-04-29 02:44:00,
2013-04-28 21:49:00,53.4,48.4,29.93,WSW,240,0.0,0.0,83,0.00,,CLR,0.08,VWS V14.01,2013-04-29 02:49:00,
2013-04-28 21:54:00,53.3,48.3,29.93,WSW,240,0.0,0.0,83,0.00,,CLR,0.08,VWS V14.01,2013-04-29 02:54:00,
2013-04-28 21:59:00,53.2,48.2,29.93,WSW,240,0.0,0.0,83,0.00,,CLR,0.08,VWS V14.01,2013-04-29 02:59:00,
2013-04-28 22:04:00,53.1,48.1,29.93,WSW,240,0.0,0.0,83,0.00,,CLR,0.08,VWS V14.01,2013-04-29 03:04:00,
2013-04-28 22:09:00,53.0,48.0,29.93,WSW,240,0.0,0.0,83,0.00,,CLR,0.08,VWS V14.01,2013-04-29 03:09:00,
2013-04-28 22:14:00,52.8,47.8,29.93,WSW,240,0.0,0.0,83,0.00,,CLR,0.08,VWS V14.01,2013-04-29 03:14:00,
2013-04-28 22:19:00,52.5,47.5,29.93,WSW,240,0.0,0.0,83,0.00,,CLR,0.08,VWS V14.01,2013-04-29 03:19:00,
2013-04-28 22:24:00,52.4,47.4,29.93,WSW,240,0.0,0.0,83,0.00,,CLR,0.08,VWS V14.01,2013-04-29 03:24:00,
2013-04-28 22:29:00,52.1,47.1,29.93,WSW,240,0.0,0.0,83,0.00,,CLR,0.08,VWS V14.01,2013-04-29 03:29:00,
2013-04-28 22:34:00,51.9,46.9,29.93,WSW,240,0.0,0.0,83,0.00,,CLR,0.08,VWS V14.01,2013-04-29 03:34:00,
2013-04-28 22:39:00,51.6,46.6,29.94,WSW,240,0.0,0.0,83,0.00,,CLR,0.08,VWS V14.01,2013-04-29 03:39:00,
2013-04-28 22:44:00,51.4,46.4,29.93,WSW,240,0.0,0.0,83,0.00,,BKN025,0.08,VWS V14.01,2013-04-29 03:44:00,
2013-04-28 22:49:00,51.1,46.1,29.93,WSW,240,0.0,0.0,83,0.00,,BKN025,0.08,VWS V14.01,2013-04-29 03:49:00,
2013-04-28 22:54:00,50.9,45.9,29.93,WSW,240,0.0,0.0,83,0.00,,BKN025,0.08,VWS V14.01,2013-04-29 03:54:00,
2013-04-28 22:59:00,50.8,45.8,29.93,WSW,240,0.0,0.0,83,0.00,,BKN025,0.08,VWS V14.01,2013-04-29 03:59:00,
2013-04-28 23:01:00,50.8,45.8,29.93,WSW,240,0.0,0.0,83,0.00,,SCT027,0.08,VWS V14.01,2013-04-29 04:01:00,
2013-04-28 23:04:00,50.6,45.6,29.93,WSW,240,0.0,0.0,83,0.00,,SCT027,0.08,VWS V14.01,2013-04-29 04:04:00,
2013-04-28 23:09:00,50.5,45.5,29.93,WSW,240,0.0,0.0,83,0.00,,SCT027,0.08,VWS V14.01,2013-04-29 04:09:00,
2013-04-28 23:14:00,50.4,45.4,29.93,WSW,240,0.0,0.0,83,0.00,,SCT027,0.08,VWS V14.01,2013-04-29 04:14:00,
2013-04-28 23:19:00,50.3,45.3,29.93,WSW,240,0.0,0.0,83,0.00,,SCT027,0.08,VWS V14.01,2013-04-29 04:19:00,
2013-04-28 23:21:00,50.2,45.2,29.93,WSW,240,0.0,0.0,83,0.00,,SCT027,0.08,VWS V14.01,2013-04-29 04:21:00,
2013-04-28 23:29:00,49.8,44.8,29.92,WSW,240,0.0,0.0,83,0.00,,SCT027,0.08,VWS V14.01,2013-04-29 04:29:00,
2013-04-28 23:34:00,49.5,44.6,29.92,WSW,240,0.0,0.0,83,0.00,,SCT027,0.08,VWS V14.01,2013-04-29 04:34:00,
2013-04-28 23:39:00,49.4,44.5,29.92,WSW,240,0.0,0.0,83,0.00,,SCT027,0.08,VWS V14.01,2013-04-29 04:39:00,
2013-04-28 23:44:00,49.2,44.3,29.92,WSW,240,0.0,0.0,83,0.00,,,0.08,VWS V14.01,2013-04-29 04:44:00,
2013-04-28 23:49:00,49.1,44.2,29.92,WSW,240,0.0,0.0,83,0.00,,,0.08,VWS V14.01,2013-04-29 04:49:00,
2013-04-28 23:54:00,49.0,44.1,29.92,WSW,240,0.0,0.0,83,0.00,,,0.08,VWS V14.01,2013-04-29 04:54:00,
2013-04-28 23:59:00,48.9,44.0,29.92,WSW,240,0.0,0.0,83,0.00,,,0.08,VWS V14.01,2013-04-29 04:59:00,